DFW Airport, Texas
Current Conditions -  °F | °C
As of 10:53 PM on Wednesday 22 Oct 2014 (Local Time) from KDFW Reporting Station
Overcast Overcast  
Wind Chill: 70°   Ceiling: 16000
Heat Index: 70°   Visibility: 10mi
Dew Point: 55°   Wind: 6mph
Humidity: 59%   Direction: 120°ESE
Pressure: 30.11"   Gusts: NA
Location:  32.9°N, 97.03°W
Report Text: KDFW 230353Z 12005KT 10SM FEW140 OVC160 21/13 A3011 RMK AO2 SLP189 T02110128
Loading
Personal Weather Stations






























Interactive Weather Map New forecast layout! Learn more

10-Day Weather Forecast

Advertisements
Track Severe Weather on mobile